Terminal Aerodrome Forecast
Issued by NWS

Home | Current Version | Previous Version | Text Only | Print | Product List | Glossary On
Versions: 1 2 3 4 5 6 7 8 9 10 11 12 13 14
000
FTUS44 KLZK 202300
TAFLLQ
TAF
KLLQ 202333Z 2100/2124 15005KT P6SM SCT100 BKN250
     FM210600 14003KT P6SM VCSH SCT040 BKN100 OVC250
     FM211700 20006KT P6SM VCSH SCT030 BKN060 OVC100
     FM211800 16007KT P6SM -SHRA BKN050 OVC100
     FM212000 22009KT P6SM -TSRA BKN040CB OVC100=

USA.gov is the U.S. government's official web portal to all federal, state and local government web resources and services.